Time;durP1;ratioP1;P1;durP2;ratioP2;P2;SDS_P1;SDS_P2;PMS_P1;PMS_P2;Temp;Humidity;BMP_temperature;BMP_pressure;BME280_temperature;BME280_humidity;BME280_pressure;Samples;Min_cycle;Max_cycle;Signal;HPM_P1;HPM_P2
2023/06/06 00:01:21;;;;;;;23.00;10.77;;;15.70;99.90;;;;;;7291698;19;20689;-83
2023/06/06 00:03:48;;;;;;;21.43;11.00;;;15.80;99.90;;;;;;7291630;19;20649;-81
2023/06/06 00:06:20;;;;;;;22.07;10.80;;;15.70;99.90;;;;;;7289900;19;20248;-82
2023/06/06 00:08:50;;;;;;;20.73;10.37;;;15.60;99.90;;;;;;7288478;19;20184;-82
2023/06/06 00:11:16;;;;;;;19.67;9.70;;;15.50;99.90;;;;;;7288591;19;20200;-82
2023/06/06 00:13:42;;;;;;;21.10;9.80;;;15.40;99.90;;;;;;7287425;19;20672;-82
2023/06/06 00:16:08;;;;;;;21.87;10.63;;;15.20;99.90;;;;;;7288424;19;20266;-82
2023/06/06 00:18:35;;;;;;;20.30;10.13;;;15.00;99.90;;;;;;7289347;19;20188;-82
2023/06/06 00:21:00;;;;;;;19.70;9.43;;;14.90;99.90;;;;;;7307248;19;20200;-81
2023/06/06 00:23:26;;;;;;;19.60;9.87;;;14.90;99.90;;;;;;7297956;19;20227;-82
2023/06/06 00:25:55;;;;;;;17.57;9.50;;;14.90;99.90;;;;;;7286105;19;21056;-82
2023/06/06 00:28:21;;;;;;;20.47;8.93;;;14.90;99.90;;;;;;7288755;19;20209;-82
2023/06/06 00:30:47;;;;;;;18.73;9.67;;;15.00;99.90;;;;;;7289238;19;20188;-82
2023/06/06 00:33:13;;;;;;;20.07;9.87;;;14.90;99.90;;;;;;7286258;19;20179;-82
2023/06/06 00:35:40;;;;;;;20.50;9.97;;;14.80;99.90;;;;;;7288692;19;20181;-82
2023/06/06 00:38:06;;;;;;;18.40;9.70;;;14.70;99.90;;;;;;7287977;19;20210;-82
2023/06/06 00:40:32;;;;;;;19.73;10.30;;;14.90;99.90;;;;;;7293303;19;20181;-81
2023/06/06 00:42:58;;;;;;;19.43;10.20;;;14.90;99.90;;;;;;7309718;19;20197;-82
2023/06/06 00:45:24;;;;;;;19.10;10.13;;;14.90;99.90;;;;;;7287018;19;20188;-82
2023/06/06 00:47:49;;;;;;;19.73;10.33;;;14.80;99.90;;;;;;7287567;19;20696;-83
2023/06/06 00:50:16;;;;;;;18.03;9.47;;;14.80;99.90;;;;;;7286507;19;20205;-82
2023/06/06 00:52:46;;;;;;;18.20;9.53;;;14.80;99.90;;;;;;7287746;19;20188;-82
2023/06/06 00:55:14;;;;;;;18.27;9.70;;;14.70;99.90;;;;;;7284642;19;20181;-83
2023/06/06 00:57:43;;;;;;;20.80;9.17;;;14.70;99.90;;;;;;7287281;19;20207;-81
2023/06/06 01:00:10;;;;;;;22.23;10.23;;;14.80;99.90;;;;;;7285562;19;20191;-82
2023/06/06 01:02:37;;;;;;;19.87;9.47;;;14.70;99.90;;;;;;7287492;19;20256;-81
2023/06/06 01:05:09;;;;;;;20.30;9.90;;;14.70;99.90;;;;;;7288652;19;20188;-81
2023/06/06 01:07:37;;;;;;;21.40;9.90;;;14.60;99.90;;;;;;7287747;19;20207;-81
2023/06/06 01:10:05;;;;;;;19.53;9.27;;;14.60;99.90;;;;;;7283926;19;20681;-82
2023/06/06 01:12:47;;;;;;;21.23;10.40;;;14.70;99.90;;;;;;7305447;19;20177;-80
2023/06/06 01:15:31;;;;;;;21.43;10.07;;;14.70;99.90;;;;;;7287307;19;20189;-81
2023/06/06 01:17:57;;;;;;;17.90;9.80;;;14.70;99.90;;;;;;7286648;19;20252;-81
2023/06/06 01:20:24;;;;;;;23.17;10.30;;;14.60;99.90;;;;;;7287377;19;20825;-82
2023/06/06 01:22:52;;;;;;;20.33;10.17;;;14.50;99.90;;;;;;7284403;19;20185;-82
2023/06/06 01:25:21;;;;;;;19.83;10.20;;;14.50;99.90;;;;;;7289941;19;20542;-82
2023/06/06 01:27:53;;;;;;;22.73;10.13;;;14.60;99.90;;;;;;7286159;19;20193;-82
2023/06/06 01:30:23;;;;;;;19.23;9.57;;;14.40;99.90;;;;;;7286924;19;20188;-82
2023/06/06 01:32:53;;;;;;;21.00;10.20;;;14.40;99.90;;;;;;7287979;19;20217;-83
2023/06/06 01:35:38;;;;;;;23.43;11.07;;;14.30;99.90;;;;;;7285564;19;20214;-82
2023/06/06 01:38:12;;;;;;;22.00;10.00;;;14.20;99.90;;;;;;7264223;19;20217;-82
2023/06/06 01:40:40;;;;;;;22.83;10.50;;;14.10;99.90;;;;;;7284196;19;20712;-82
2023/06/06 01:43:09;;;;;;;22.70;10.20;;;14.00;99.90;;;;;;7285893;19;20204;-82
2023/06/06 01:45:38;;;;;;;19.50;10.17;;;14.10;99.90;;;;;;7280613;19;21892;-81
2023/06/06 01:48:04;;;;;;;21.37;10.37;;;14.00;99.90;;;;;;7283874;19;20205;-82
2023/06/06 01:50:32;;;;;;;18.97;10.13;;;14.00;99.90;;;;;;7307208;19;20203;-82
2023/06/06 01:52:58;;;;;;;18.97;9.93;;;14.10;99.90;;;;;;7286391;19;20219;-82
2023/06/06 01:55:24;;;;;;;24.07;10.23;;;14.10;99.90;;;;;;7284942;19;20614;-82
2023/06/06 01:57:50;;;;;;;23.77;10.37;;;14.10;99.90;;;;;;7285916;19;20205;-82
2023/06/06 02:00:17;;;;;;;24.13;10.90;;;14.10;99.90;;;;;;7285283;19;20181;-82
2023/06/06 02:02:43;;;;;;;26.00;11.60;;;14.00;99.90;;;;;;7285722;19;20191;-82
2023/06/06 02:05:09;;;;;;;21.73;10.77;;;14.10;99.90;;;;;;7286354;19;20259;-83
2023/06/06 02:07:37;;;;;;;22.70;11.30;;;14.20;99.90;;;;;;7283735;19;20191;-82
2023/06/06 02:10:05;;;;;;;23.77;11.50;;;14.30;99.90;;;;;;7285062;19;20191;-82
2023/06/06 02:12:31;;;;;;;20.57;10.67;;;14.30;99.90;;;;;;7306616;19;20725;-82
2023/06/06 02:14:59;;;;;;;20.93;11.07;;;14.10;99.90;;;;;;7283750;19;20218;-81
2023/06/06 02:17:24;;;;;;;20.90;11.50;;;14.20;99.90;;;;;;7286032;19;20186;-82
2023/06/06 02:19:52;;;;;;;26.33;12.07;;;14.10;99.90;;;;;;7284943;19;20205;-82
2023/06/06 02:22:18;;;;;;;23.50;11.27;;;14.10;99.90;;;;;;7284315;19;20225;-81
2023/06/06 02:24:44;;;;;;;21.87;10.73;;;14.00;99.90;;;;;;7284015;19;20188;-81
2023/06/06 02:27:13;;;;;;;22.93;10.70;;;13.90;99.90;;;;;;7281799;19;20726;-82
2023/06/06 02:29:39;;;;;;;21.27;11.13;;;13.90;99.90;;;;;;7282994;19;20184;-82
2023/06/06 02:32:06;;;;;;;25.30;11.70;;;14.10;99.90;;;;;;7283963;19;20575;-82
2023/06/06 02:34:32;;;;;;;22.00;10.40;;;14.10;99.90;;;;;;7305711;19;20178;-82
2023/06/06 02:36:59;;;;;;;22.17;10.63;;;14.10;99.90;;;;;;7285788;19;20208;-82
2023/06/06 02:39:28;;;;;;;24.30;11.23;;;13.90;99.90;;;;;;7285491;19;20181;-81
2023/06/06 02:41:54;;;;;;;21.43;10.57;;;13.70;99.90;;;;;;7284388;19;20200;-82
2023/06/06 02:44:21;;;;;;;22.67;11.53;;;13.70;99.90;;;;;;7283522;19;20190;-82
2023/06/06 02:46:47;;;;;;;22.57;11.67;;;13.50;99.90;;;;;;7282942;19;20182;-82
2023/06/06 02:49:14;;;;;;;27.50;11.97;;;13.50;99.90;;;;;;7282907;19;20190;-82
2023/06/06 02:51:41;;;;;;;25.30;12.23;;;13.50;99.90;;;;;;7283757;19;20269;-82
2023/06/06 02:54:06;;;;;;;24.50;11.50;;;13.50;99.90;;;;;;7281886;19;20190;-82
2023/06/06 02:56:32;;;;;;;24.27;11.20;;;13.40;99.90;;;;;;7303062;19;20188;-81
2023/06/06 02:58:58;;;;;;;23.73;11.93;;;13.50;99.90;;;;;;7298405;19;20188;-81
2023/06/06 03:01:25;;;;;;;24.53;11.90;;;13.70;99.90;;;;;;7282048;19;20188;-82
2023/06/06 03:03:51;;;;;;;26.57;12.63;;;13.60;99.90;;;;;;7283736;19;20534;-81
2023/06/06 03:06:20;;;;;;;21.80;11.77;;;13.60;99.90;;;;;;7282026;19;20194;-82
2023/06/06 03:08:47;;;;;;;27.23;12.33;;;13.50;99.90;;;;;;7278860;19;20615;-82
2023/06/06 03:11:13;;;;;;;24.03;11.53;;;13.60;99.90;;;;;;7283372;19;20635;-81
2023/06/06 03:13:38;;;;;;;25.73;11.20;;;13.50;99.90;;;;;;7283528;19;20205;-81
2023/06/06 03:16:06;;;;;;;23.90;11.90;;;13.30;99.90;;;;;;7280717;19;20208;-82
2023/06/06 03:18:36;;;;;;;24.30;12.37;;;13.20;99.90;;;;;;7290142;19;20187;-81
2023/06/06 03:21:07;;;;;;;25.50;11.93;;;13.10;99.90;;;;;;7289658;19;20202;-82
2023/06/06 03:23:39;;;;;;;26.20;11.77;;;13.10;99.90;;;;;;7288203;19;20208;-82
2023/06/06 03:26:05;;;;;;;24.73;12.20;;;13.20;99.90;;;;;;7290315;19;20194;-81
2023/06/06 03:28:32;;;;;;;25.57;12.13;;;13.20;99.90;;;;;;7311276;19;20207;-82
2023/06/06 03:30:59;;;;;;;25.47;12.37;;;13.30;99.90;;;;;;7290743;19;20190;-82
2023/06/06 03:33:26;;;;;;;26.53;12.63;;;13.30;99.90;;;;;;7289724;19;20190;-82
2023/06/06 03:35:55;;;;;;;23.53;12.37;;;13.30;99.90;;;;;;7289721;19;20217;-82
2023/06/06 03:38:22;;;;;;;23.83;12.07;;;13.40;99.90;;;;;;7291202;19;20201;-82
2023/06/06 03:40:48;;;;;;;27.20;12.57;;;13.30;99.90;;;;;;7287805;19;20386;-82
2023/06/06 03:43:14;;;;;;;26.80;12.90;;;13.20;99.90;;;;;;7289043;19;20286;-82
2023/06/06 03:45:41;;;;;;;28.23;13.17;;;13.10;99.90;;;;;;7289440;19;20253;-82
2023/06/06 03:48:09;;;;;;;24.73;11.73;;;13.10;99.90;;;;;;7289054;19;20194;-82
2023/06/06 03:50:35;;;;;;;25.87;12.83;;;13.00;99.90;;;;;;7288336;19;20663;-81
2023/06/06 03:53:02;;;;;;;28.47;13.70;;;13.10;99.90;;;;;;7311091;19;20192;-82
2023/06/06 03:55:28;;;;;;;23.77;11.43;;;13.10;99.90;;;;;;7288502;19;20192;-82
2023/06/06 03:57:55;;;;;;;23.73;12.13;;;13.20;99.90;;;;;;7289891;19;20189;-82
2023/06/06 04:00:20;;;;;;;25.67;12.17;;;13.10;99.90;;;;;;7288566;19;20204;-82
2023/06/06 04:02:46;;;;;;;25.03;12.07;;;13.00;99.90;;;;;;7288321;19;21002;-82
2023/06/06 04:05:13;;;;;;;24.63;11.43;;;13.10;99.90;;;;;;7289575;19;20203;-81
2023/06/06 04:07:39;;;;;;;27.53;12.83;;;13.20;99.90;;;;;;7287928;19;20192;-81
2023/06/06 04:10:06;;;;;;;24.90;11.93;;;13.30;99.90;;;;;;7287398;19;20191;-82
2023/06/06 04:12:32;;;;;;;23.27;11.83;;;13.40;99.90;;;;;;7310443;19;20186;-82
2023/06/06 04:14:57;;;;;;;23.17;11.80;;;13.30;99.90;;;;;;7289924;19;20243;-82
2023/06/06 04:17:24;;;;;;;24.23;12.30;;;13.20;99.90;;;;;;7288188;19;20320;-82
2023/06/06 04:19:51;;;;;;;25.00;12.13;;;13.20;99.90;;;;;;7288187;19;20191;-82
2023/06/06 04:22:18;;;;;;;24.30;11.00;;;13.30;99.90;;;;;;7288730;19;20192;-81
2023/06/06 04:24:44;;;;;;;27.30;11.67;;;13.30;99.90;;;;;;7288028;19;20191;-82
2023/06/06 04:27:12;;;;;;;24.30;12.27;;;13.40;99.90;;;;;;7287031;19;20200;-82
2023/06/06 04:29:40;;;;;;;23.43;11.70;;;13.60;99.90;;;;;;7282629;19;20230;-82
2023/06/06 04:32:09;;;;;;;23.83;11.73;;;13.60;99.90;;;;;;7286125;19;20199;-81
2023/06/06 04:34:39;;;;;;;24.53;12.37;;;13.80;99.90;;;;;;7289849;19;20184;-81
2023/06/06 04:37:08;;;;;;;26.40;12.57;;;14.20;99.90;;;;;;7287709;19;20187;-82
2023/06/06 04:39:35;;;;;;;23.23;11.33;;;14.50;99.90;;;;;;7296175;19;20253;-81
2023/06/06 04:42:02;;;;;;;21.27;11.73;;;14.80;99.90;;;;;;7309383;19;20649;-83
2023/06/06 04:44:29;;;;;;;24.47;11.43;;;15.10;99.90;;;;;;7287425;19;20623;-83
2023/06/06 04:47:01;;;;;;;24.17;11.37;;;15.40;99.90;;;;;;7283952;19;20184;-83
2023/06/06 04:49:35;;;;;;;22.33;11.30;;;15.80;99.90;;;;;;7287389;19;20252;-82
2023/06/06 04:52:05;;;;;;;21.53;11.23;;;16.20;99.90;;;;;;7288509;19;20180;-83
2023/06/06 04:54:33;;;;;;;20.63;10.63;;;16.50;99.90;;;;;;7290527;19;20192;-83
2023/06/06 04:57:03;;;;;;;20.27;10.80;;;16.90;99.90;;;;;;7288924;19;20232;-83
2023/06/06 04:59:29;;;;;;;22.43;11.40;;;17.30;99.90;;;;;;7287293;19;20184;-81
2023/06/06 05:01:55;;;;;;;23.77;11.43;;;17.40;99.90;;;;;;7286047;19;20181;-80
2023/06/06 05:04:22;;;;;;;19.27;10.33;;;17.50;99.90;;;;;;7287179;19;20185;-81
2023/06/06 05:06:48;;;;;;;20.13;10.70;;;17.70;99.90;;;;;;7285263;19;20189;-82
2023/06/06 05:09:14;;;;;;;21.40;10.60;;;18.00;99.90;;;;;;7287408;19;20199;-81
2023/06/06 05:11:49;;;;;;;22.03;10.60;;;17.90;99.90;;;;;;7287290;19;20197;-81
2023/06/06 05:14:23;;;;;;;21.17;11.23;;;17.80;99.90;;;;;;7286467;19;20187;-82
2023/06/06 05:16:56;;;;;;;20.00;10.23;;;17.60;99.90;;;;;;7286988;19;20186;-82
2023/06/06 05:19:21;;;;;;;21.17;10.80;;;17.70;99.90;;;;;;7286293;19;20203;-82
2023/06/06 05:21:47;;;;;;;19.77;10.83;;;18.10;99.90;;;;;;7284793;19;20264;-81
2023/06/06 05:24:14;;;;;;;20.90;10.73;;;18.20;99.90;;;;;;7285870;19;20196;-81
2023/06/06 05:26:40;;;;;;;21.10;11.17;;;18.50;99.90;;;;;;7286224;19;20193;-82
2023/06/06 05:29:06;;;;;;;18.73;10.53;;;18.60;99.90;;;;;;7286321;19;20248;-81
2023/06/06 05:31:33;;;;;;;20.47;10.50;;;18.70;99.90;;;;;;7309174;19;20223;-81
2023/06/06 05:34:00;;;;;;;24.53;11.37;;;18.50;99.90;;;;;;7287761;19;20198;-83
2023/06/06 05:36:25;;;;;;;19.50;11.30;;;18.20;99.90;;;;;;7287423;19;20188;-82
2023/06/06 05:38:51;;;;;;;19.97;10.80;;;17.90;99.90;;;;;;7285409;19;20205;-83
2023/06/06 05:41:18;;;;;;;20.53;10.60;;;17.80;99.90;;;;;;7285153;19;20201;-83
2023/06/06 05:43:50;;;;;;;20.40;10.97;;;17.80;99.90;;;;;;7285725;19;20196;-82
2023/06/06 05:46:17;;;;;;;20.60;11.40;;;17.80;99.90;;;;;;7284594;19;20660;-83
2023/06/06 05:48:43;;;;;;;19.67;10.27;;;18.20;99.90;;;;;;7286870;19;20639;-80
2023/06/06 05:51:09;;;;;;;19.87;10.20;;;18.70;99.90;;;;;;7285715;19;20193;-80
2023/06/06 05:53:39;;;;;;;20.67;10.93;;;19.00;99.90;;;;;;7291777;19;20698;-80
2023/06/06 05:56:05;;;;;;;21.80;10.90;;;18.90;99.90;;;;;;7292797;19;20195;-79
2023/06/06 05:58:32;;;;;;;19.97;10.70;;;19.00;99.90;;;;;;7309258;19;20253;-79
2023/06/06 06:00:58;;;;;;;17.63;10.87;;;19.10;99.90;;;;;;7284932;19;20247;-79
2023/06/06 06:03:25;;;;;;;19.40;10.27;;;19.50;99.90;;;;;;7285808;19;20263;-80
2023/06/06 06:05:50;;;;;;;19.00;10.47;;;19.70;99.90;;;;;;7286129;19;20193;-80
2023/06/06 06:08:17;;;;;;;20.73;11.50;;;19.80;99.90;;;;;;7283927;19;20207;-79
2023/06/06 06:10:43;;;;;;;19.13;10.10;;;19.70;99.90;;;;;;7284763;19;20196;-79
2023/06/06 06:13:09;;;;;;;20.70;11.37;;;19.40;99.90;;;;;;7282880;19;20922;-80
2023/06/06 06:15:36;;;;;;;19.33;10.90;;;19.50;99.90;;;;;;7297904;19;20204;-80
2023/06/06 06:18:03;;;;;;;23.03;11.60;;;19.70;99.90;;;;;;7304497;19;20677;-81
2023/06/06 06:20:29;;;;;;;20.30;10.63;;;20.00;99.90;;;;;;7285452;19;20626;-79
2023/06/06 06:22:55;;;;;;;19.17;10.83;;;20.30;99.90;;;;;;7285291;19;20185;-81
2023/06/06 06:25:21;;;;;;;19.13;9.70;;;20.40;99.90;;;;;;7291398;19;20196;-80
2023/06/06 06:27:47;;;;;;;18.67;10.27;;;20.20;99.90;;;;;;7307425;19;20302;-80
2023/06/06 06:30:13;;;;;;;24.17;11.30;;;20.20;99.90;;;;;;7294411;19;20201;-80
2023/06/06 06:32:41;;;;;;;18.93;10.63;;;20.20;99.90;;;;;;7287003;19;20310;-81
2023/06/06 06:35:08;;;;;;;18.07;10.50;;;20.50;99.90;;;;;;7289109;19;20293;-82
2023/06/06 06:37:37;;;;;;;18.40;10.13;;;20.60;99.90;;;;;;7306978;19;20188;-81
2023/06/06 06:40:10;;;;;;;20.53;10.93;;;20.50;99.90;;;;;;7310029;19;20198;-81
2023/06/06 06:42:40;;;;;;;18.60;10.20;;;20.50;99.90;;;;;;7266764;19;20622;-81
2023/06/06 06:45:20;;;;;;;20.83;11.40;;;20.80;99.90;;;;;;7287249;19;20673;-81
2023/06/06 06:47:46;;;;;;;19.90;10.80;;;20.90;99.90;;;;;;7282979;19;20560;-81
2023/06/06 06:50:12;;;;;;;19.50;10.23;;;20.90;99.90;;;;;;7282731;19;20177;-81
2023/06/06 06:52:38;;;;;;;20.80;10.73;;;21.10;99.90;;;;;;7286427;19;20652;-80
2023/06/06 06:55:05;;;;;;;21.10;10.70;;;21.10;99.90;;;;;;7313431;19;20673;-84
2023/06/06 06:57:31;;;;;;;20.07;10.10;;;21.90;99.90;;;;;;7292761;19;20271;-86
2023/06/06 06:59:58;;;;;;;16.70;10.17;;;22.00;99.90;;;;;;7291018;19;20252;-85
2023/06/06 07:02:29;;;;;;;18.33;10.43;;;22.10;99.90;;;;;;7289552;19;20186;-85
2023/06/06 07:05:01;;;;;;;18.80;10.77;;;22.00;99.90;;;;;;7290650;19;20209;-85
2023/06/06 07:07:27;;;;;;;19.60;10.63;;;22.20;99.90;;;;;;7290068;19;20585;-85
2023/06/06 07:09:53;;;;;;;20.93;10.80;;;22.60;99.90;;;;;;7290730;19;20191;-86
2023/06/06 07:12:20;;;;;;;19.40;10.73;;;23.20;99.90;;;;;;7289935;19;20244;-86
2023/06/06 07:14:46;;;;;;;18.60;11.00;;;24.10;99.90;;;;;;7290580;19;20547;-86
2023/06/06 07:17:12;;;;;;;16.58;10.10;;;24.00;99.90;;;;;;7292195;19;20198;-86
2023/06/06 07:19:38;;;;;;;20.80;10.52;;;24.60;99.90;;;;;;7290204;19;20256;-86
2023/06/06 07:22:04;;;;;;;21.93;10.50;;;24.90;99.90;;;;;;7314373;19;20185;-86
2023/06/06 07:24:31;;;;;;;22.03;10.47;;;24.60;99.90;;;;;;7291288;19;20176;-87
2023/06/06 07:26:58;;;;;;;17.67;11.03;;;24.70;99.90;;;;;;7290509;19;20200;-85
2023/06/06 07:29:26;;;;;;;17.77;10.35;;;25.70;99.90;;;;;;7290484;19;20203;-85
2023/06/06 07:31:53;;;;;;;16.00;10.13;;;26.10;99.90;;;;;;7288739;19;20248;-85
2023/06/06 07:34:19;;;;;;;17.92;10.63;;;26.30;99.90;;;;;;7290067;19;20195;-86
2023/06/06 07:36:45;;;;;;;18.98;10.35;;;26.70;99.90;;;;;;7291625;19;20605;-86
2023/06/06 07:39:11;;;;;;;19.35;9.90;;;27.30;99.90;;;;;;7288970;19;20543;-86
2023/06/06 07:41:39;;;;;;;20.60;11.50;;;28.40;99.90;;;;;;7289607;19;20277;-84
2023/06/06 07:44:04;;;;;;;21.70;11.43;;;27.30;99.90;;;;;;7310166;19;20218;-83
2023/06/06 07:46:30;;;;;;;17.85;10.80;;;27.60;99.90;;;;;;7302224;19;20204;-85
2023/06/06 07:48:58;;;;;;;16.80;10.35;;;28.10;99.90;;;;;;7290256;19;20245;-85
2023/06/06 07:51:24;;;;;;;20.48;11.27;;;27.70;99.90;;;;;;7290752;19;20210;-85
2023/06/06 07:53:49;;;;;;;22.30;11.63;;;27.60;99.90;;;;;;7291548;19;20193;-86
2023/06/06 07:56:16;;;;;;;21.83;11.52;;;27.30;99.90;;;;;;7290780;19;20185;-85
2023/06/06 07:58:46;;;;;;;21.38;12.23;;;27.40;99.90;;;;;;7291303;19;20192;-87
2023/06/06 08:01:13;;;;;;;19.30;10.73;;;27.90;99.90;;;;;;7289371;19;20181;-85
2023/06/06 08:03:39;;;;;;;20.15;10.98;;;28.10;99.90;;;;;;7290204;19;20180;-85
2023/06/06 08:06:05;;;;;;;17.23;10.38;;;28.20;99.90;;;;;;7307063;19;20563;-84
2023/06/06 08:08:31;;;;;;;19.40;10.73;;;28.70;99.90;;;;;;7306816;19;20733;-85
2023/06/06 08:10:57;;;;;;;19.25;10.55;;;29.20;99.40;;;;;;7290276;19;20193;-86
2023/06/06 08:13:23;;;;;;;18.52;10.88;;;30.40;97.40;;;;;;7289441;19;20185;-86
2023/06/06 08:15:49;;;;;;;20.75;10.82;;;30.70;95.80;;;;;;7289192;19;20188;-85
2023/06/06 08:18:15;;;;;;;20.55;10.75;;;29.60;96.20;;;;;;7290081;19;20673;-86
2023/06/06 08:20:41;;;;;;;20.45;11.05;;;30.40;95.30;;;;;;7290184;19;20184;-85
2023/06/06 08:23:07;;;;;;;20.02;10.52;;;30.10;94.20;;;;;;7290571;19;20219;-84
2023/06/06 08:25:37;;;;;;;16.63;10.82;;;29.50;94.40;;;;;;7312022;19;20181;-85
2023/06/06 08:28:03;;;;;;;21.02;11.55;;;29.00;95.90;;;;;;7289247;19;20188;-85
2023/06/06 08:30:29;;;;;;;22.63;11.68;;;29.10;95.60;;;;;;7289018;19;20189;-85
2023/06/06 08:32:54;;;;;;;25.00;11.98;;;29.40;95.50;;;;;;7289579;19;20194;-85
2023/06/06 08:35:20;;;;;;;22.45;11.82;;;29.00;95.60;;;;;;7289245;19;20642;-85
2023/06/06 08:37:47;;;;;;;20.40;11.45;;;29.90;95.40;;;;;;7289635;19;20252;-85
2023/06/06 08:40:13;;;;;;;17.35;11.30;;;29.40;94.00;;;;;;7287595;19;20185;-85
2023/06/06 08:42:44;;;;;;;20.35;10.60;;;28.50;95.70;;;;;;7287752;19;20268;-85
2023/06/06 08:45:10;;;;;;;17.13;10.85;;;29.70;94.50;;;;;;7288806;19;20195;-86
2023/06/06 08:47:37;;;;;;;18.38;11.43;;;29.50;94.20;;;;;;7295830;19;20298;-85
2023/06/06 08:50:04;;;;;;;21.20;11.57;;;29.20;93.70;;;;;;7311229;19;20191;-86
2023/06/06 08:52:36;;;;;;;19.80;11.70;;;28.30;94.70;;;;;;7288303;19;20598;-86
2023/06/06 08:55:03;;;;;;;17.05;11.50;;;28.80;94.70;;;;;;7287714;19;20203;-85
2023/06/06 08:57:29;;;;;;;18.85;10.95;;;29.80;94.10;;;;;;7288662;19;20191;-85
2023/06/06 08:59:55;;;;;;;17.52;11.35;;;30.50;93.50;;;;;;7289230;19;20194;-86
2023/06/06 09:02:22;;;;;;;18.90;11.23;;;29.90;92.70;;;;;;7289107;19;20218;-85
2023/06/06 09:04:50;;;;;;;20.63;11.38;;;29.70;92.60;;;;;;7288932;19;20641;-85
2023/06/06 09:07:17;;;;;;;20.55;11.18;;;30.40;92.70;;;;;;7288102;19;20547;-86
2023/06/06 09:09:47;;;;;;;22.10;10.85;;;30.40;91.80;;;;;;7288115;19;20184;-85
2023/06/06 09:12:13;;;;;;;20.75;11.10;;;31.40;91.20;;;;;;7288879;19;20294;-86
2023/06/06 09:14:39;;;;;;;20.05;11.82;;;31.50;90.60;;;;;;7285918;19;20181;-85
2023/06/06 09:17:05;;;;;;;19.25;10.98;;;31.30;90.20;;;;;;7303863;19;20177;-84
2023/06/06 09:19:31;;;;;;;22.88;11.52;;;30.00;91.30;;;;;;7303620;19;20564;-86
2023/06/06 09:22:05;;;;;;;19.52;11.65;;;30.40;91.80;;;;;;7286787;19;20269;-86
2023/06/06 09:24:32;;;;;;;22.77;11.98;;;30.80;91.10;;;;;;7287400;19;20193;-86
2023/06/06 09:26:58;;;;;;;22.38;11.23;;;32.00;89.60;;;;;;7287036;19;20189;-86
2023/06/06 09:29:26;;;;;;;21.80;11.45;;;31.70;90.50;;;;;;7288068;19;20195;-86
2023/06/06 09:31:52;;;;;;;22.63;11.60;;;31.50;90.40;;;;;;7287058;19;20188;-85
2023/06/06 09:34:25;;;;;;;22.48;11.52;;;32.00;88.70;;;;;;7287204;19;20204;-86
2023/06/06 09:36:52;;;;;;;19.77;11.50;;;30.80;90.00;;;;;;7287580;19;20195;-86
2023/06/06 09:39:18;;;;;;;19.40;11.02;;;30.60;90.20;;;;;;7286224;19;20217;-86
2023/06/06 09:41:45;;;;;;;19.02;11.02;;;30.70;90.00;;;;;;7288727;19;20279;-86
2023/06/06 09:44:24;;;;;;;20.83;11.95;;;30.40;90.40;;;;;;7290170;19;20189;-86
2023/06/06 09:46:58;;;;;;;18.65;11.00;;;30.50;90.40;;;;;;7288480;19;20197;-86
2023/06/06 09:49:24;;;;;;;22.13;11.27;;;30.60;90.40;;;;;;7288341;19;20204;-85
2023/06/06 09:51:53;;;;;;;19.55;11.43;;;30.30;91.20;;;;;;7286668;19;20680;-85
2023/06/06 09:54:18;;;;;;;16.08;11.15;;;30.50;90.40;;;;;;7285495;19;20213;-86
2023/06/06 09:56:47;;;;;;;18.15;10.90;;;30.50;90.10;;;;;;7285448;19;20177;-85
2023/06/06 09:59:14;;;;;;;17.42;9.98;;;30.90;91.10;;;;;;7286733;19;20600;-86
2023/06/06 10:01:42;;;;;;;19.95;11.50;;;31.70;90.60;;;;;;7284272;19;20188;-85
2023/06/06 10:04:09;;;;;;;17.00;10.25;;;31.10;90.00;;;;;;7286485;19;20216;-84
2023/06/06 10:06:37;;;;;;;17.63;10.60;;;31.70;89.20;;;;;;7308077;19;20676;-85
2023/06/06 10:09:06;;;;;;;17.65;11.18;;;32.50;85.60;;;;;;7284893;19;20192;-86
2023/06/06 10:11:33;;;;;;;17.63;11.13;;;32.10;85.90;;;;;;7287750;19;20188;-84
2023/06/06 10:13:59;;;;;;;21.75;10.90;;;31.60;86.70;;;;;;7284742;19;20258;-85
2023/06/06 10:16:29;;;;;;;22.67;10.50;;;32.20;85.70;;;;;;7286123;19;20384;-85
2023/06/06 10:18:56;;;;;;;19.15;11.23;;;31.40;86.10;;;;;;7284871;19;20305;-85
2023/06/06 10:21:24;;;;;;;18.38;10.50;;;31.30;86.60;;;;;;7284656;19;20204;-85
2023/06/06 10:23:51;;;;;;;22.35;11.57;;;31.60;87.00;;;;;;7285657;19;20187;-85
2023/06/06 10:26:24;;;;;;;18.38;11.15;;;31.10;89.50;;;;;;7284081;19;20233;-85
2023/06/06 10:29:21;;;;;;;18.73;11.15;;;31.00;88.80;;;;;;7283702;19;20200;-85
2023/06/06 10:32:14;;;;;;;20.38;10.10;;;31.90;86.50;;;;;;7181953;19;2004462;-85
2023/06/06 10:34:44;;;;;;;16.88;9.77;;;32.50;85.80;;;;;;7283537;19;20256;-85
2023/06/06 10:37:17;;;;;;;18.55;10.57;;;34.60;82.50;;;;;;7283791;19;20187;-85
2023/06/06 10:39:47;;;;;;;15.25;9.48;;;32.80;80.70;;;;;;7286109;19;20282;-85
2023/06/06 10:42:13;;;;;;;20.70;10.10;;;32.60;84.60;;;;;;7283107;19;20523;-85
2023/06/06 10:44:45;;;;;;;18.05;10.35;;;31.90;84.90;;;;;;7284937;19;20185;-84
2023/06/06 10:47:27;;;;;;;16.98;10.32;;;32.10;84.10;;;;;;7284189;19;20264;-85
2023/06/06 10:50:08;;;;;;;17.25;9.95;;;32.70;82.40;;;;;;7283570;19;20195;-84
2023/06/06 10:52:51;;;;;;;17.75;11.30;;;32.80;82.10;;;;;;7285546;19;20180;-85
2023/06/06 10:55:44;;;;;;;20.40;9.65;;;33.00;81.70;;;;;;7180658;19;2004315;-85
2023/06/06 10:58:35;;;;;;;18.92;9.93;;;33.30;80.10;;;;;;7262620;19;20537;-85
2023/06/06 11:01:02;;;;;;;16.63;9.63;;;32.90;79.80;;;;;;7283063;19;20181;-85
2023/06/06 11:03:37;;;;;;;17.30;9.98;;;33.20;81.50;;;;;;7284091;19;20192;-85
2023/06/06 11:06:11;;;;;;;16.60;9.13;;;32.20;80.10;;;;;;7285730;19;20189;-86
2023/06/06 11:09:00;;;;;;;18.83;9.77;;;31.90;82.40;;;;;;7262930;19;20185;-86
2023/06/06 11:11:30;;;;;;;16.75;9.13;;;32.70;80.40;;;;;;7284600;19;20197;-86
2023/06/06 11:14:07;;;;;;;14.85;9.30;;;34.10;79.50;;;;;;7285097;19;20178;-85
2023/06/06 11:16:39;;;;;;;15.27;9.07;;;33.90;76.80;;;;;;7284798;19;20188;-86
2023/06/06 11:19:16;;;;;;;15.90;8.68;;;33.60;77.50;;;;;;7284724;19;20187;-85
2023/06/06 11:21:45;;;;;;;17.35;9.10;;;33.30;77.80;;;;;;7182082;19;2004526;-84
2023/06/06 11:24:11;;;;;;;18.33;9.80;;;33.40;78.40;;;;;;7282671;19;20209;-86
2023/06/06 11:26:39;;;;;;;18.75;8.82;;;33.00;78.70;;;;;;7283340;19;20211;-85
2023/06/06 11:29:07;;;;;;;15.07;9.07;;;32.80;80.10;;;;;;7304191;19;20181;-86
2023/06/06 11:31:35;;;;;;;16.13;8.63;;;32.30;78.40;;;;;;7283826;19;20196;-85
2023/06/06 11:34:11;;;;;;;15.82;8.23;;;32.50;81.50;;;;;;7283519;19;20181;-86
2023/06/06 11:36:41;;;;;;;15.98;9.02;;;32.40;78.20;;;;;;7265537;19;20191;-85
2023/06/06 11:39:12;;;;;;;13.38;7.80;;;31.80;79.10;;;;;;7294371;19;20207;-85
2023/06/06 11:41:43;;;;;;;17.33;8.60;;;32.30;84.50;;;;;;7290517;19;20253;-86
2023/06/06 11:44:09;;;;;;;17.02;8.05;;;32.80;77.10;;;;;;7288173;19;20199;-86
2023/06/06 11:46:48;;;;;;;16.02;8.52;;;33.00;78.50;;;;;;7311646;19;20200;-85
2023/06/06 11:49:14;;;;;;;18.08;9.10;;;32.50;78.90;;;;;;7187022;19;2004561;-86
2023/06/06 11:51:40;;;;;;;16.10;7.18;;;33.40;76.00;;;;;;7289485;19;20193;-85
2023/06/06 11:54:19;;;;;;;10.73;7.15;;;34.00;74.40;;;;;;7307459;19;20236;-84
2023/06/06 11:56:45;;;;;;;11.88;7.35;;;32.90;75.30;;;;;;7288502;19;20676;-86
2023/06/06 11:59:12;;;;;;;14.45;7.32;;;33.00;74.30;;;;;;7290289;19;20200;-86
2023/06/06 12:01:50;;;;;;;15.80;7.03;;;33.10;73.50;;;;;;7288407;19;20185;-85
2023/06/06 12:04:21;;;;;;;16.02;7.90;;;32.50;76.40;;;;;;7290959;19;20195;-86
2023/06/06 12:06:48;;;;;;;14.15;7.68;;;31.20;77.30;;;;;;7288857;19;20199;-87
2023/06/06 12:09:16;;;;;;;16.15;7.18;;;29.80;77.40;;;;;;7289695;19;20193;-86
2023/06/06 12:12:10;;;;;;;17.30;8.15;;;28.90;79.60;;;;;;7289799;19;20195;-86
2023/06/06 12:14:36;;;;;;;14.13;8.13;;;28.40;83.80;;;;;;7288456;19;20586;-83
2023/06/06 12:17:08;;;;;;;14.05;6.57;;;28.00;84.90;;;;;;7300930;19;20196;-86
2023/06/06 12:19:35;;;;;;;14.63;6.60;;;28.00;86.60;;;;;;7288961;19;20192;-86
2023/06/06 12:22:01;;;;;;;17.65;7.85;;;28.20;87.10;;;;;;7288847;19;20193;-86
2023/06/06 12:24:29;;;;;;;15.32;7.68;;;27.90;87.10;;;;;;7287158;19;20638;-86
2023/06/06 12:27:00;;;;;;;12.82;6.72;;;27.50;88.00;;;;;;7289783;19;20193;-86
2023/06/06 12:29:33;;;;;;;16.17;7.40;;;27.50;89.40;;;;;;7288714;19;21053;-86
2023/06/06 12:32:21;;;;;;;18.10;6.65;;;27.30;89.60;;;;;;7289947;19;20188;-85
2023/06/06 12:34:59;;;;;;;15.57;7.10;;;27.30;88.80;;;;;;7186640;19;2004758;-86